sensor_id;sensor_type;location;lat;lon;timestamp;P1;durP1;ratioP1;P2;durP2;ratioP2
30707;SDS011;17458;48.958;8.284;2024-03-29T00:00:14;5.43;;;3.25;;
30707;SDS011;17458;48.958;8.284;2024-03-29T00:02:59;7.28;;;2.97;;
30707;SDS011;17458;48.958;8.284;2024-03-29T00:05:43;7.13;;;2.90;;
30707;SDS011;17458;48.958;8.284;2024-03-29T00:08:27;3.75;;;3.08;;
30707;SDS011;17458;48.958;8.284;2024-03-29T00:11:11;8.48;;;3.97;;
30707;SDS011;17458;48.958;8.284;2024-03-29T00:13:55;8.38;;;4.45;;
30707;SDS011;17458;48.958;8.284;2024-03-29T00:16:39;3.08;;;2.78;;
30707;SDS011;17458;48.958;8.284;2024-03-29T00:19:23;5.15;;;2.40;;
30707;SDS011;17458;48.958;8.284;2024-03-29T00:22:07;5.88;;;3.25;;
30707;SDS011;17458;48.958;8.284;2024-03-29T00:24:51;5.47;;;2.60;;
30707;SDS011;17458;48.958;8.284;2024-03-29T00:27:35;3.15;;;2.90;;
30707;SDS011;17458;48.958;8.284;2024-03-29T00:30:21;4.10;;;2.63;;
30707;SDS011;17458;48.958;8.284;2024-03-29T00:33:05;5.20;;;2.80;;
30707;SDS011;17458;48.958;8.284;2024-03-29T00:35:49;5.22;;;3.22;;
30707;SDS011;17458;48.958;8.284;2024-03-29T00:38:34;5.00;;;2.88;;
30707;SDS011;17458;48.958;8.284;2024-03-29T00:41:18;3.63;;;2.78;;
30707;SDS011;17458;48.958;8.284;2024-03-29T00:44:02;5.40;;;2.03;;
30707;SDS011;17458;48.958;8.284;2024-03-29T00:46:47;2.67;;;2.20;;
30707;SDS011;17458;48.958;8.284;2024-03-29T00:49:31;3.30;;;2.70;;
30707;SDS011;17458;48.958;8.284;2024-03-29T00:52:15;3.15;;;2.70;;
30707;SDS011;17458;48.958;8.284;2024-03-29T00:54:59;2.88;;;2.60;;
30707;SDS011;17458;48.958;8.284;2024-03-29T00:57:44;5.82;;;2.47;;
30707;SDS011;17458;48.958;8.284;2024-03-29T01:00:28;3.90;;;2.75;;
30707;SDS011;17458;48.958;8.284;2024-03-29T01:03:12;3.25;;;2.30;;
30707;SDS011;17458;48.958;8.284;2024-03-29T01:05:55;2.00;;;1.90;;
30707;SDS011;17458;48.958;8.284;2024-03-29T01:08:40;3.22;;;2.40;;
30707;SDS011;17458;48.958;8.284;2024-03-29T01:11:24;5.05;;;3.63;;
30707;SDS011;17458;48.958;8.284;2024-03-29T01:14:08;7.45;;;2.50;;
30707;SDS011;17458;48.958;8.284;2024-03-29T01:16:51;3.83;;;2.15;;
30707;SDS011;17458;48.958;8.284;2024-03-29T01:19:36;2.35;;;2.17;;
30707;SDS011;17458;48.958;8.284;2024-03-29T01:22:21;2.92;;;2.13;;
30707;SDS011;17458;48.958;8.284;2024-03-29T01:25:05;5.28;;;2.45;;
30707;SDS011;17458;48.958;8.284;2024-03-29T01:27:51;2.53;;;2.30;;
30707;SDS011;17458;48.958;8.284;2024-03-29T01:30:35;7.03;;;2.53;;
30707;SDS011;17458;48.958;8.284;2024-03-29T01:33:20;2.00;;;1.90;;
30707;SDS011;17458;48.958;8.284;2024-03-29T01:36:04;2.42;;;2.20;;
30707;SDS011;17458;48.958;8.284;2024-03-29T01:38:49;3.85;;;2.40;;
30707;SDS011;17458;48.958;8.284;2024-03-29T01:41:36;2.97;;;2.53;;
30707;SDS011;17458;48.958;8.284;2024-03-29T01:44:20;3.63;;;2.33;;
30707;SDS011;17458;48.958;8.284;2024-03-29T01:47:04;2.47;;;2.17;;
30707;SDS011;17458;48.958;8.284;2024-03-29T01:49:48;3.38;;;2.42;;
30707;SDS011;17458;48.958;8.284;2024-03-29T01:52:32;3.45;;;2.58;;
30707;SDS011;17458;48.958;8.284;2024-03-29T01:55:16;2.97;;;2.58;;
30707;SDS011;17458;48.958;8.284;2024-03-29T01:58:01;3.47;;;2.60;;
30707;SDS011;17458;48.958;8.284;2024-03-29T02:00:52;3.70;;;2.47;;
30707;SDS011;17458;48.958;8.284;2024-03-29T02:03:38;2.72;;;2.53;;
30707;SDS011;17458;48.958;8.284;2024-03-29T02:06:23;3.88;;;2.80;;
30707;SDS011;17458;48.958;8.284;2024-03-29T02:09:07;2.47;;;2.10;;
30707;SDS011;17458;48.958;8.284;2024-03-29T02:11:51;2.15;;;2.00;;
30707;SDS011;17458;48.958;8.284;2024-03-29T02:14:35;2.00;;;1.90;;
30707;SDS011;17458;48.958;8.284;2024-03-29T02:17:18;4.25;;;2.40;;
30707;SDS011;17458;48.958;8.284;2024-03-29T02:20:02;3.53;;;2.35;;
30707;SDS011;17458;48.958;8.284;2024-03-29T02:22:53;4.70;;;1.88;;
30707;SDS011;17458;48.958;8.284;2024-03-29T02:25:39;8.00;;;3.28;;
30707;SDS011;17458;48.958;8.284;2024-03-29T02:28:24;3.70;;;2.17;;
30707;SDS011;17458;48.958;8.284;2024-03-29T02:31:09;4.45;;;2.72;;
30707;SDS011;17458;48.958;8.284;2024-03-29T02:33:53;7.25;;;2.55;;
30707;SDS011;17458;48.958;8.284;2024-03-29T02:36:37;3.50;;;2.30;;
30707;SDS011;17458;48.958;8.284;2024-03-29T02:39:21;5.53;;;2.60;;
30707;SDS011;17458;48.958;8.284;2024-03-29T02:42:05;6.60;;;2.88;;
30707;SDS011;17458;48.958;8.284;2024-03-29T02:44:50;4.75;;;2.70;;
30707;SDS011;17458;48.958;8.284;2024-03-29T02:47:34;3.15;;;2.28;;
30707;SDS011;17458;48.958;8.284;2024-03-29T02:50:18;6.30;;;2.30;;
30707;SDS011;17458;48.958;8.284;2024-03-29T02:53:02;2.75;;;2.47;;
30707;SDS011;17458;48.958;8.284;2024-03-29T02:55:46;3.95;;;2.58;;
30707;SDS011;17458;48.958;8.284;2024-03-29T02:58:30;5.10;;;2.83;;
30707;SDS011;17458;48.958;8.284;2024-03-29T03:01:13;4.00;;;2.80;;
30707;SDS011;17458;48.958;8.284;2024-03-29T03:03:57;3.97;;;3.38;;
30707;SDS011;17458;48.958;8.284;2024-03-29T03:06:42;3.85;;;2.78;;
30707;SDS011;17458;48.958;8.284;2024-03-29T03:09:26;4.03;;;3.08;;
30707;SDS011;17458;48.958;8.284;2024-03-29T03:12:29;8.35;;;3.35;;
30707;SDS011;17458;48.958;8.284;2024-03-29T03:15:14;5.18;;;3.08;;
30707;SDS011;17458;48.958;8.284;2024-03-29T03:17:58;3.10;;;2.78;;
30707;SDS011;17458;48.958;8.284;2024-03-29T03:20:42;3.70;;;3.03;;
30707;SDS011;17458;48.958;8.284;2024-03-29T03:23:26;6.82;;;3.40;;
30707;SDS011;17458;48.958;8.284;2024-03-29T03:26:11;3.15;;;2.70;;
30707;SDS011;17458;48.958;8.284;2024-03-29T03:28:55;4.70;;;3.13;;
30707;SDS011;17458;48.958;8.284;2024-03-29T03:31:39;4.05;;;3.47;;
30707;SDS011;17458;48.958;8.284;2024-03-29T03:34:23;4.03;;;3.25;;
30707;SDS011;17458;48.958;8.284;2024-03-29T03:37:07;5.25;;;2.70;;
30707;SDS011;17458;48.958;8.284;2024-03-29T03:39:51;3.13;;;2.60;;
30707;SDS011;17458;48.958;8.284;2024-03-29T03:42:34;5.10;;;3.17;;
30707;SDS011;17458;48.958;8.284;2024-03-29T03:45:18;9.98;;;2.50;;
30707;SDS011;17458;48.958;8.284;2024-03-29T03:48:03;4.70;;;2.45;;
30707;SDS011;17458;48.958;8.284;2024-03-29T03:50:48;5.15;;;2.53;;
30707;SDS011;17458;48.958;8.284;2024-03-29T03:53:32;4.20;;;2.75;;
30707;SDS011;17458;48.958;8.284;2024-03-29T03:56:16;5.38;;;3.50;;
30707;SDS011;17458;48.958;8.284;2024-03-29T03:59:00;2.30;;;2.15;;
30707;SDS011;17458;48.958;8.284;2024-03-29T04:01:44;4.75;;;2.60;;
30707;SDS011;17458;48.958;8.284;2024-03-29T04:04:28;2.85;;;2.42;;
30707;SDS011;17458;48.958;8.284;2024-03-29T04:07:13;2.63;;;2.40;;
30707;SDS011;17458;48.958;8.284;2024-03-29T04:09:57;4.18;;;2.72;;
30707;SDS011;17458;48.958;8.284;2024-03-29T04:12:41;6.57;;;2.60;;
30707;SDS011;17458;48.958;8.284;2024-03-29T04:15:25;4.55;;;2.47;;
30707;SDS011;17458;48.958;8.284;2024-03-29T04:18:09;3.22;;;2.33;;
30707;SDS011;17458;48.958;8.284;2024-03-29T04:20:56;4.57;;;2.78;;
30707;SDS011;17458;48.958;8.284;2024-03-29T04:23:41;6.68;;;2.72;;
30707;SDS011;17458;48.958;8.284;2024-03-29T04:26:25;2.60;;;2.40;;
30707;SDS011;17458;48.958;8.284;2024-03-29T04:29:09;3.25;;;2.38;;
30707;SDS011;17458;48.958;8.284;2024-03-29T04:31:53;3.60;;;2.47;;
30707;SDS011;17458;48.958;8.284;2024-03-29T04:34:37;2.55;;;2.35;;
30707;SDS011;17458;48.958;8.284;2024-03-29T04:37:21;4.53;;;2.35;;
30707;SDS011;17458;48.958;8.284;2024-03-29T04:40:05;4.65;;;2.65;;
30707;SDS011;17458;48.958;8.284;2024-03-29T04:42:49;5.07;;;2.70;;
30707;SDS011;17458;48.958;8.284;2024-03-29T04:45:33;2.47;;;2.28;;
30707;SDS011;17458;48.958;8.284;2024-03-29T04:48:17;3.33;;;2.38;;
30707;SDS011;17458;48.958;8.284;2024-03-29T04:51:02;2.45;;;2.00;;
30707;SDS011;17458;48.958;8.284;2024-03-29T04:53:47;2.35;;;2.10;;
30707;SDS011;17458;48.958;8.284;2024-03-29T04:56:31;2.72;;;2.38;;
30707;SDS011;17458;48.958;8.284;2024-03-29T04:59:16;9.15;;;2.55;;
30707;SDS011;17458;48.958;8.284;2024-03-29T05:02:01;2.40;;;2.20;;
30707;SDS011;17458;48.958;8.284;2024-03-29T05:04:45;3.83;;;2.50;;
30707;SDS011;17458;48.958;8.284;2024-03-29T05:07:30;4.70;;;2.53;;
30707;SDS011;17458;48.958;8.284;2024-03-29T05:10:13;3.97;;;2.10;;
30707;SDS011;17458;48.958;8.284;2024-03-29T05:12:59;2.53;;;2.33;;
30707;SDS011;17458;48.958;8.284;2024-03-29T05:15:44;3.53;;;2.40;;
30707;SDS011;17458;48.958;8.284;2024-03-29T05:18:28;2.33;;;2.13;;
30707;SDS011;17458;48.958;8.284;2024-03-29T05:21:12;2.70;;;2.50;;
30707;SDS011;17458;48.958;8.284;2024-03-29T05:23:56;2.10;;;2.00;;
30707;SDS011;17458;48.958;8.284;2024-03-29T05:26:40;3.88;;;2.10;;
30707;SDS011;17458;48.958;8.284;2024-03-29T05:29:24;2.53;;;2.33;;
30707;SDS011;17458;48.958;8.284;2024-03-29T05:32:08;2.28;;;2.15;;
30707;SDS011;17458;48.958;8.284;2024-03-29T05:34:52;5.63;;;2.47;;
30707;SDS011;17458;48.958;8.284;2024-03-29T05:37:36;2.83;;;2.25;;
30707;SDS011;17458;48.958;8.284;2024-03-29T05:40:20;2.97;;;2.22;;
30707;SDS011;17458;48.958;8.284;2024-03-29T05:43:11;3.80;;;3.40;;
30707;SDS011;17458;48.958;8.284;2024-03-29T05:45:55;2.15;;;2.00;;
30707;SDS011;17458;48.958;8.284;2024-03-29T05:48:39;2.08;;;1.98;;
30707;SDS011;17458;48.958;8.284;2024-03-29T05:51:23;2.38;;;2.10;;
30707;SDS011;17458;48.958;8.284;2024-03-29T05:54:07;2.15;;;1.95;;
30707;SDS011;17458;48.958;8.284;2024-03-29T05:56:51;3.45;;;2.60;;
30707;SDS011;17458;48.958;8.284;2024-03-29T05:59:35;5.47;;;2.35;;
30707;SDS011;17458;48.958;8.284;2024-03-29T06:02:19;2.47;;;2.28;;
30707;SDS011;17458;48.958;8.284;2024-03-29T06:05:03;3.97;;;1.80;;
30707;SDS011;17458;48.958;8.284;2024-03-29T06:07:48;7.30;;;2.08;;
30707;SDS011;17458;48.958;8.284;2024-03-29T06:10:32;3.97;;;1.95;;
30707;SDS011;17458;48.958;8.284;2024-03-29T06:13:16;5.72;;;2.38;;
30707;SDS011;17458;48.958;8.284;2024-03-29T06:16:26;3.58;;;2.67;;
30707;SDS011;17458;48.958;8.284;2024-03-29T06:19:30;3.03;;;1.98;;
30707;SDS011;17458;48.958;8.284;2024-03-29T06:22:14;3.92;;;1.85;;
30707;SDS011;17458;48.958;8.284;2024-03-29T06:24:58;7.03;;;3.00;;
30707;SDS011;17458;48.958;8.284;2024-03-29T06:27:43;3.22;;;2.00;;
30707;SDS011;17458;48.958;8.284;2024-03-29T06:30:33;2.63;;;1.95;;
30707;SDS011;17458;48.958;8.284;2024-03-29T06:33:17;4.40;;;2.03;;
30707;SDS011;17458;48.958;8.284;2024-03-29T06:36:01;5.07;;;2.22;;
30707;SDS011;17458;48.958;8.284;2024-03-29T06:38:45;2.20;;;1.92;;
30707;SDS011;17458;48.958;8.284;2024-03-29T06:41:30;2.10;;;1.90;;
30707;SDS011;17458;48.958;8.284;2024-03-29T06:44:14;3.58;;;2.22;;
30707;SDS011;17458;48.958;8.284;2024-03-29T06:46:58;8.52;;;3.47;;
30707;SDS011;17458;48.958;8.284;2024-03-29T06:49:42;7.47;;;2.45;;
30707;SDS011;17458;48.958;8.284;2024-03-29T06:52:26;4.45;;;2.78;;
30707;SDS011;17458;48.958;8.284;2024-03-29T06:55:09;4.10;;;2.22;;
30707;SDS011;17458;48.958;8.284;2024-03-29T06:57:53;5.32;;;2.42;;
30707;SDS011;17458;48.958;8.284;2024-03-29T07:00:37;2.60;;;2.10;;
30707;SDS011;17458;48.958;8.284;2024-03-29T07:03:21;5.18;;;2.20;;
30707;SDS011;17458;48.958;8.284;2024-03-29T07:06:05;3.08;;;2.30;;
30707;SDS011;17458;48.958;8.284;2024-03-29T07:08:50;9.65;;;2.35;;
30707;SDS011;17458;48.958;8.284;2024-03-29T07:11:34;3.28;;;2.30;;
30707;SDS011;17458;48.958;8.284;2024-03-29T07:14:18;2.40;;;2.20;;
30707;SDS011;17458;48.958;8.284;2024-03-29T07:17:03;5.18;;;2.95;;
30707;SDS011;17458;48.958;8.284;2024-03-29T07:19:47;3.25;;;2.40;;
30707;SDS011;17458;48.958;8.284;2024-03-29T07:22:31;5.20;;;3.20;;
30707;SDS011;17458;48.958;8.284;2024-03-29T07:25:15;3.67;;;2.72;;
30707;SDS011;17458;48.958;8.284;2024-03-29T07:27:59;4.97;;;2.60;;
30707;SDS011;17458;48.958;8.284;2024-03-29T07:30:43;3.90;;;2.28;;
30707;SDS011;17458;48.958;8.284;2024-03-29T07:33:27;3.55;;;2.53;;
30707;SDS011;17458;48.958;8.284;2024-03-29T07:36:12;3.22;;;2.38;;
30707;SDS011;17458;48.958;8.284;2024-03-29T07:39:00;4.10;;;2.60;;
30707;SDS011;17458;48.958;8.284;2024-03-29T07:41:45;2.72;;;1.80;;
30707;SDS011;17458;48.958;8.284;2024-03-29T07:44:29;2.50;;;2.30;;
30707;SDS011;17458;48.958;8.284;2024-03-29T07:47:13;2.83;;;2.50;;
30707;SDS011;17458;48.958;8.284;2024-03-29T07:49:58;8.90;;;2.85;;
30707;SDS011;17458;48.958;8.284;2024-03-29T07:52:44;6.00;;;2.75;;
30707;SDS011;17458;48.958;8.284;2024-03-29T07:55:28;3.92;;;2.60;;
30707;SDS011;17458;48.958;8.284;2024-03-29T07:58:12;5.80;;;2.60;;
30707;SDS011;17458;48.958;8.284;2024-03-29T08:00:56;4.88;;;1.85;;
30707;SDS011;17458;48.958;8.284;2024-03-29T08:03:40;3.28;;;2.40;;
30707;SDS011;17458;48.958;8.284;2024-03-29T08:06:24;9.07;;;2.67;;
30707;SDS011;17458;48.958;8.284;2024-03-29T08:09:08;3.30;;;2.63;;
30707;SDS011;17458;48.958;8.284;2024-03-29T08:11:53;3.50;;;2.50;;
30707;SDS011;17458;48.958;8.284;2024-03-29T08:14:38;5.05;;;2.30;;
30707;SDS011;17458;48.958;8.284;2024-03-29T08:17:21;6.13;;;2.90;;
30707;SDS011;17458;48.958;8.284;2024-03-29T08:20:06;8.10;;;2.42;;
30707;SDS011;17458;48.958;8.284;2024-03-29T08:22:50;7.53;;;2.28;;
30707;SDS011;17458;48.958;8.284;2024-03-29T08:25:34;2.85;;;2.00;;
30707;SDS011;17458;48.958;8.284;2024-03-29T08:28:18;4.70;;;2.50;;
30707;SDS011;17458;48.958;8.284;2024-03-29T08:31:04;2.72;;;2.40;;
30707;SDS011;17458;48.958;8.284;2024-03-29T08:33:49;3.50;;;2.53;;
30707;SDS011;17458;48.958;8.284;2024-03-29T08:36:34;2.97;;;2.50;;
30707;SDS011;17458;48.958;8.284;2024-03-29T08:39:18;3.80;;;2.92;;
30707;SDS011;17458;48.958;8.284;2024-03-29T08:42:02;6.43;;;3.30;;
30707;SDS011;17458;48.958;8.284;2024-03-29T08:44:48;6.50;;;3.33;;
30707;SDS011;17458;48.958;8.284;2024-03-29T08:47:32;5.30;;;2.70;;
30707;SDS011;17458;48.958;8.284;2024-03-29T08:50:17;3.50;;;2.60;;
30707;SDS011;17458;48.958;8.284;2024-03-29T08:53:01;3.58;;;1.88;;
30707;SDS011;17458;48.958;8.284;2024-03-29T08:55:47;3.00;;;2.13;;
30707;SDS011;17458;48.958;8.284;2024-03-29T08:58:32;1.95;;;1.80;;
30707;SDS011;17458;48.958;8.284;2024-03-29T09:01:16;2.08;;;1.88;;
30707;SDS011;17458;48.958;8.284;2024-03-29T09:04:00;7.13;;;2.33;;
30707;SDS011;17458;48.958;8.284;2024-03-29T09:06:44;5.18;;;2.30;;
30707;SDS011;17458;48.958;8.284;2024-03-29T09:09:28;2.15;;;1.95;;
30707;SDS011;17458;48.958;8.284;2024-03-29T09:12:12;4.40;;;1.80;;
30707;SDS011;17458;48.958;8.284;2024-03-29T09:14:56;2.45;;;2.22;;
30707;SDS011;17458;48.958;8.284;2024-03-29T09:17:41;3.47;;;2.30;;
30707;SDS011;17458;48.958;8.284;2024-03-29T09:20:25;4.47;;;2.13;;
30707;SDS011;17458;48.958;8.284;2024-03-29T09:23:09;4.38;;;2.45;;
30707;SDS011;17458;48.958;8.284;2024-03-29T09:25:53;10.63;;;3.58;;
30707;SDS011;17458;48.958;8.284;2024-03-29T09:28:38;3.60;;;3.10;;
30707;SDS011;17458;48.958;8.284;2024-03-29T09:31:23;10.77;;;4.00;;
30707;SDS011;17458;48.958;8.284;2024-03-29T09:34:06;15.00;;;5.22;;
30707;SDS011;17458;48.958;8.284;2024-03-29T09:36:50;12.40;;;4.47;;
30707;SDS011;17458;48.958;8.284;2024-03-29T09:39:34;13.10;;;4.70;;
30707;SDS011;17458;48.958;8.284;2024-03-29T09:42:18;6.15;;;3.03;;
30707;SDS011;17458;48.958;8.284;2024-03-29T09:45:06;8.63;;;4.30;;
30707;SDS011;17458;48.958;8.284;2024-03-29T09:47:51;5.82;;;2.85;;
30707;SDS011;17458;48.958;8.284;2024-03-29T09:50:37;7.90;;;3.80;;
30707;SDS011;17458;48.958;8.284;2024-03-29T09:53:21;7.88;;;3.22;;
30707;SDS011;17458;48.958;8.284;2024-03-29T09:56:07;4.28;;;2.70;;
30707;SDS011;17458;48.958;8.284;2024-03-29T09:58:51;5.05;;;3.25;;
30707;SDS011;17458;48.958;8.284;2024-03-29T10:01:36;8.13;;;3.85;;
30707;SDS011;17458;48.958;8.284;2024-03-29T10:04:21;4.40;;;3.15;;
30707;SDS011;17458;48.958;8.284;2024-03-29T10:07:07;3.65;;;3.00;;
30707;SDS011;17458;48.958;8.284;2024-03-29T10:09:52;6.85;;;3.70;;
30707;SDS011;17458;48.958;8.284;2024-03-29T10:12:38;4.68;;;3.28;;
30707;SDS011;17458;48.958;8.284;2024-03-29T10:15:22;5.60;;;3.50;;
30707;SDS011;17458;48.958;8.284;2024-03-29T10:18:10;14.45;;;3.33;;
30707;SDS011;17458;48.958;8.284;2024-03-29T10:21:00;5.00;;;2.92;;
30707;SDS011;17458;48.958;8.284;2024-03-29T10:23:48;5.63;;;3.05;;
30707;SDS011;17458;48.958;8.284;2024-03-29T10:26:32;4.18;;;2.97;;
30707;SDS011;17458;48.958;8.284;2024-03-29T10:29:16;5.68;;;3.10;;
30707;SDS011;17458;48.958;8.284;2024-03-29T10:32:00;10.82;;;3.45;;
30707;SDS011;17458;48.958;8.284;2024-03-29T10:34:45;4.43;;;3.53;;
30707;SDS011;17458;48.958;8.284;2024-03-29T10:37:32;4.93;;;3.65;;
30707;SDS011;17458;48.958;8.284;2024-03-29T10:40:22;6.20;;;4.63;;
30707;SDS011;17458;48.958;8.284;2024-03-29T10:43:08;10.57;;;4.25;;
30707;SDS011;17458;48.958;8.284;2024-03-29T10:45:56;4.53;;;3.58;;
30707;SDS011;17458;48.958;8.284;2024-03-29T10:48:43;7.60;;;4.43;;
30707;SDS011;17458;48.958;8.284;2024-03-29T10:51:29;8.68;;;5.82;;
30707;SDS011;17458;48.958;8.284;2024-03-29T10:54:15;10.60;;;5.85;;
30707;SDS011;17458;48.958;8.284;2024-03-29T10:57:05;10.35;;;5.47;;
30707;SDS011;17458;48.958;8.284;2024-03-29T11:06:15;7.47;;;5.22;;
30707;SDS011;17458;48.958;8.284;2024-03-29T11:09:05;5.18;;;4.18;;
30707;SDS011;17458;48.958;8.284;2024-03-29T11:11:55;6.55;;;4.72;;
30707;SDS011;17458;48.958;8.284;2024-03-29T11:14:45;5.60;;;4.15;;
30707;SDS011;17458;48.958;8.284;2024-03-29T11:17:33;3.72;;;2.50;;
30707;SDS011;17458;48.958;8.284;2024-03-29T11:20:17;4.82;;;2.15;;
30707;SDS011;17458;48.958;8.284;2024-03-29T11:23:08;3.33;;;2.35;;
30707;SDS011;17458;48.958;8.284;2024-03-29T11:25:55;5.50;;;2.53;;
30707;SDS011;17458;48.958;8.284;2024-03-29T11:28:49;2.25;;;2.05;;
30707;SDS011;17458;48.958;8.284;2024-03-29T11:31:37;2.55;;;2.35;;
30707;SDS011;17458;48.958;8.284;2024-03-29T11:34:22;3.30;;;2.30;;
30707;SDS011;17458;48.958;8.284;2024-03-29T11:37:07;2.88;;;2.40;;
30707;SDS011;17458;48.958;8.284;2024-03-29T11:39:51;4.43;;;2.60;;
30707;SDS011;17458;48.958;8.284;2024-03-29T11:42:43;4.25;;;2.75;;
30707;SDS011;17458;48.958;8.284;2024-03-29T11:45:28;9.50;;;2.70;;
30707;SDS011;17458;48.958;8.284;2024-03-29T11:48:14;3.97;;;2.47;;
30707;SDS011;17458;48.958;8.284;2024-03-29T11:51:00;2.80;;;2.22;;
30707;SDS011;17458;48.958;8.284;2024-03-29T11:53:47;2.60;;;1.63;;
30707;SDS011;17458;48.958;8.284;2024-03-29T11:56:31;2.47;;;1.77;;
30707;SDS011;17458;48.958;8.284;2024-03-29T11:59:15;4.15;;;1.95;;
30707;SDS011;17458;48.958;8.284;2024-03-29T12:02:00;3.28;;;2.20;;
30707;SDS011;17458;48.958;8.284;2024-03-29T12:04:44;3.10;;;1.88;;
30707;SDS011;17458;48.958;8.284;2024-03-29T12:07:29;2.92;;;1.40;;
30707;SDS011;17458;48.958;8.284;2024-03-29T12:10:13;3.25;;;2.13;;
30707;SDS011;17458;48.958;8.284;2024-03-29T12:12:57;6.32;;;2.08;;
30707;SDS011;17458;48.958;8.284;2024-03-29T12:15:41;4.90;;;1.95;;
30707;SDS011;17458;48.958;8.284;2024-03-29T12:18:25;2.90;;;1.50;;
30707;SDS011;17458;48.958;8.284;2024-03-29T12:21:11;4.65;;;1.50;;
30707;SDS011;17458;48.958;8.284;2024-03-29T12:23:58;1.83;;;1.38;;
30707;SDS011;17458;48.958;8.284;2024-03-29T12:26:43;3.72;;;1.65;;
30707;SDS011;17458;48.958;8.284;2024-03-29T12:29:28;4.85;;;1.60;;
30707;SDS011;17458;48.958;8.284;2024-03-29T12:32:12;3.20;;;2.10;;
30707;SDS011;17458;48.958;8.284;2024-03-29T12:35:05;4.13;;;1.80;;
30707;SDS011;17458;48.958;8.284;2024-03-29T12:37:54;3.97;;;2.05;;
30707;SDS011;17458;48.958;8.284;2024-03-29T12:40:40;3.47;;;2.17;;
30707;SDS011;17458;48.958;8.284;2024-03-29T12:43:26;1.80;;;1.58;;
30707;SDS011;17458;48.958;8.284;2024-03-29T12:46:10;2.78;;;1.98;;
30707;SDS011;17458;48.958;8.284;2024-03-29T12:48:58;3.97;;;1.75;;
30707;SDS011;17458;48.958;8.284;2024-03-29T12:51:43;4.60;;;2.35;;
30707;SDS011;17458;48.958;8.284;2024-03-29T12:54:27;2.38;;;2.08;;
30707;SDS011;17458;48.958;8.284;2024-03-29T12:57:11;2.67;;;1.85;;
30707;SDS011;17458;48.958;8.284;2024-03-29T12:59:55;2.53;;;1.80;;
30707;SDS011;17458;48.958;8.284;2024-03-29T13:02:40;3.97;;;1.98;;
30707;SDS011;17458;48.958;8.284;2024-03-29T13:05:24;3.92;;;2.63;;
30707;SDS011;17458;48.958;8.284;2024-03-29T13:08:09;3.63;;;2.60;;
30707;SDS011;17458;48.958;8.284;2024-03-29T13:10:55;6.00;;;2.05;;
30707;SDS011;17458;48.958;8.284;2024-03-29T13:13:39;9.45;;;3.47;;
30707;SDS011;17458;48.958;8.284;2024-03-29T13:16:23;6.57;;;2.15;;
30707;SDS011;17458;48.958;8.284;2024-03-29T13:19:07;5.90;;;2.38;;
30707;SDS011;17458;48.958;8.284;2024-03-29T13:21:51;6.32;;;2.47;;
30707;SDS011;17458;48.958;8.284;2024-03-29T13:24:35;5.40;;;3.10;;
30707;SDS011;17458;48.958;8.284;2024-03-29T13:27:19;6.07;;;3.13;;
30707;SDS011;17458;48.958;8.284;2024-03-29T13:30:04;6.70;;;3.20;;
30707;SDS011;17458;48.958;8.284;2024-03-29T13:32:52;3.60;;;3.05;;
30707;SDS011;17458;48.958;8.284;2024-03-29T13:35:41;4.97;;;2.80;;
30707;SDS011;17458;48.958;8.284;2024-03-29T13:38:26;3.63;;;2.45;;
30707;SDS011;17458;48.958;8.284;2024-03-29T13:41:10;5.40;;;2.92;;
30707;SDS011;17458;48.958;8.284;2024-03-29T13:44:00;4.75;;;2.30;;
30707;SDS011;17458;48.958;8.284;2024-03-29T13:46:48;5.93;;;3.22;;
30707;SDS011;17458;48.958;8.284;2024-03-29T13:49:33;4.50;;;2.85;;
30707;SDS011;17458;48.958;8.284;2024-03-29T13:52:17;5.32;;;2.42;;
30707;SDS011;17458;48.958;8.284;2024-03-29T13:55:02;4.10;;;2.28;;
30707;SDS011;17458;48.958;8.284;2024-03-29T13:57:47;3.92;;;2.55;;
30707;SDS011;17458;48.958;8.284;2024-03-29T14:00:31;5.97;;;3.55;;
30707;SDS011;17458;48.958;8.284;2024-03-29T14:03:16;3.72;;;2.53;;
30707;SDS011;17458;48.958;8.284;2024-03-29T14:06:00;5.03;;;2.13;;
30707;SDS011;17458;48.958;8.284;2024-03-29T14:08:44;2.90;;;2.28;;
30707;SDS011;17458;48.958;8.284;2024-03-29T14:11:28;5.63;;;2.28;;
30707;SDS011;17458;48.958;8.284;2024-03-29T14:14:12;2.25;;;1.80;;
30707;SDS011;17458;48.958;8.284;2024-03-29T14:16:57;5.63;;;2.47;;
30707;SDS011;17458;48.958;8.284;2024-03-29T14:19:41;4.10;;;2.50;;
30707;SDS011;17458;48.958;8.284;2024-03-29T14:22:25;8.18;;;3.00;;
30707;SDS011;17458;48.958;8.284;2024-03-29T14:25:10;6.80;;;2.70;;
30707;SDS011;17458;48.958;8.284;2024-03-29T14:27:54;3.95;;;2.80;;
30707;SDS011;17458;48.958;8.284;2024-03-29T14:30:39;4.18;;;2.40;;
30707;SDS011;17458;48.958;8.284;2024-03-29T14:33:24;4.18;;;2.20;;
30707;SDS011;17458;48.958;8.284;2024-03-29T14:36:08;3.50;;;2.78;;
30707;SDS011;17458;48.958;8.284;2024-03-29T14:38:53;5.10;;;2.55;;
30707;SDS011;17458;48.958;8.284;2024-03-29T14:41:39;4.03;;;2.53;;
30707;SDS011;17458;48.958;8.284;2024-03-29T14:44:24;6.70;;;2.28;;
30707;SDS011;17458;48.958;8.284;2024-03-29T14:47:08;8.55;;;2.92;;
30707;SDS011;17458;48.958;8.284;2024-03-29T14:49:53;5.38;;;2.38;;
30707;SDS011;17458;48.958;8.284;2024-03-29T14:52:37;6.90;;;2.40;;
30707;SDS011;17458;48.958;8.284;2024-03-29T14:55:22;3.20;;;2.38;;
30707;SDS011;17458;48.958;8.284;2024-03-29T14:58:07;7.32;;;2.47;;
30707;SDS011;17458;48.958;8.284;2024-03-29T15:00:54;4.63;;;2.33;;
30707;SDS011;17458;48.958;8.284;2024-03-29T15:03:39;3.80;;;2.42;;
30707;SDS011;17458;48.958;8.284;2024-03-29T15:06:23;4.13;;;2.33;;
30707;SDS011;17458;48.958;8.284;2024-03-29T15:09:08;4.93;;;3.22;;
30707;SDS011;17458;48.958;8.284;2024-03-29T15:11:52;9.85;;;3.60;;
30707;SDS011;17458;48.958;8.284;2024-03-29T15:14:37;7.65;;;3.47;;
30707;SDS011;17458;48.958;8.284;2024-03-29T15:17:24;6.22;;;2.42;;
30707;SDS011;17458;48.958;8.284;2024-03-29T15:20:08;3.15;;;2.13;;
30707;SDS011;17458;48.958;8.284;2024-03-29T15:22:53;3.67;;;2.08;;
30707;SDS011;17458;48.958;8.284;2024-03-29T15:25:37;4.38;;;3.00;;
30707;SDS011;17458;48.958;8.284;2024-03-29T15:28:22;2.60;;;2.10;;
30707;SDS011;17458;48.958;8.284;2024-03-29T15:31:26;6.32;;;2.50;;
30707;SDS011;17458;48.958;8.284;2024-03-29T15:34:11;4.93;;;2.65;;
30707;SDS011;17458;48.958;8.284;2024-03-29T15:36:54;9.45;;;2.85;;
30707;SDS011;17458;48.958;8.284;2024-03-29T15:39:39;3.80;;;2.30;;
30707;SDS011;17458;48.958;8.284;2024-03-29T15:42:25;9.38;;;2.20;;
30707;SDS011;17458;48.958;8.284;2024-03-29T15:45:10;5.38;;;2.70;;
30707;SDS011;17458;48.958;8.284;2024-03-29T15:47:54;4.07;;;3.22;;
30707;SDS011;17458;48.958;8.284;2024-03-29T15:50:38;4.00;;;2.38;;
30707;SDS011;17458;48.958;8.284;2024-03-29T15:53:22;5.53;;;2.55;;
30707;SDS011;17458;48.958;8.284;2024-03-29T15:56:06;5.13;;;2.63;;
30707;SDS011;17458;48.958;8.284;2024-03-29T15:58:51;3.72;;;2.90;;
30707;SDS011;17458;48.958;8.284;2024-03-29T16:01:35;3.20;;;2.25;;
30707;SDS011;17458;48.958;8.284;2024-03-29T16:04:19;5.40;;;2.83;;
30707;SDS011;17458;48.958;8.284;2024-03-29T16:07:03;6.55;;;2.50;;
30707;SDS011;17458;48.958;8.284;2024-03-29T16:09:47;4.20;;;2.92;;
30707;SDS011;17458;48.958;8.284;2024-03-29T16:12:31;11.27;;;4.82;;
30707;SDS011;17458;48.958;8.284;2024-03-29T16:15:15;11.95;;;4.97;;
30707;SDS011;17458;48.958;8.284;2024-03-29T16:17:59;5.30;;;3.15;;
30707;SDS011;17458;48.958;8.284;2024-03-29T16:20:43;14.60;;;4.57;;
30707;SDS011;17458;48.958;8.284;2024-03-29T16:23:28;11.48;;;4.82;;
30707;SDS011;17458;48.958;8.284;2024-03-29T16:26:12;7.20;;;3.22;;
30707;SDS011;17458;48.958;8.284;2024-03-29T16:28:56;4.97;;;3.20;;
30707;SDS011;17458;48.958;8.284;2024-03-29T16:31:46;8.13;;;4.00;;
30707;SDS011;17458;48.958;8.284;2024-03-29T16:34:34;6.95;;;3.75;;
30707;SDS011;17458;48.958;8.284;2024-03-29T16:37:18;3.33;;;3.03;;
30707;SDS011;17458;48.958;8.284;2024-03-29T16:40:03;3.33;;;3.03;;